createdAt,value
2022-12-01T00:00:28.300Z,35.30
2022-12-01T00:01:28.336Z,35.10
2022-12-01T00:02:28.361Z,36.00
2022-12-01T00:03:28.310Z,36.50
2022-12-01T00:04:28.267Z,34.60
2022-12-01T00:05:28.261Z,35.20
2022-12-01T00:06:28.269Z,33.60
2022-12-01T00:07:28.301Z,34.80
2022-12-01T00:08:28.237Z,33.50
2022-12-01T00:09:28.225Z,34.20
2022-12-01T00:10:28.217Z,34.90
2022-12-01T00:11:28.235Z,34.50
2022-12-01T00:12:28.199Z,34.60
2022-12-01T00:13:28.196Z,33.90
2022-12-01T00:14:28.184Z,34.20
2022-12-01T00:15:28.175Z,35.30
2022-12-01T00:16:28.242Z,34.20
2022-12-01T00:17:28.159Z,35.60
2022-12-01T00:18:28.151Z,33.80
2022-12-01T00:19:28.148Z,35.30
2022-12-01T00:20:28.140Z,36.10
2022-12-01T00:21:28.165Z,36.30
2022-12-01T00:22:28.129Z,35.60
2022-12-01T00:23:28.113Z,34.60
2022-12-01T00:24:28.105Z,35.20
2022-12-01T00:25:28.099Z,37.00
2022-12-01T00:26:28.118Z,36.00
2022-12-01T00:27:28.088Z,35.10
2022-12-01T00:28:28.076Z,35.00
2022-12-01T00:29:28.065Z,36.30
2022-12-01T00:30:28.062Z,34.60
2022-12-01T00:31:28.141Z,35.70
2022-12-01T00:32:28.045Z,35.10
2022-12-01T00:33:28.038Z,35.80
2022-12-01T00:34:28.029Z,35.50
2022-12-01T00:35:28.020Z,36.60
2022-12-01T00:36:28.040Z,34.80
2022-12-01T00:37:28.004Z,34.60
2022-12-01T00:38:27.993Z,34.70
2022-12-01T00:39:27.986Z,37.00
2022-12-01T00:40:27.981Z,35.20
2022-12-01T00:41:28.000Z,34.30
2022-12-01T00:42:27.969Z,34.00
2022-12-01T00:43:27.964Z,35.60
2022-12-01T00:44:27.953Z,37.20
2022-12-01T00:45:27.941Z,35.20
2022-12-01T00:46:28.045Z,34.70
2022-12-01T00:47:27.930Z,36.10
2022-12-01T00:48:27.918Z,36.50
2022-12-01T00:49:27.916Z,37.00
2022-12-01T00:50:27.904Z,35.00
2022-12-01T00:51:27.921Z,37.00
2022-12-01T00:52:27.886Z,37.40
2022-12-01T00:53:27.878Z,34.60
2022-12-01T00:54:27.868Z,36.00
2022-12-01T00:55:27.864Z,34.70
2022-12-01T00:56:27.883Z,34.90
2022-12-01T00:57:27.853Z,35.10
2022-12-01T00:58:27.838Z,35.20
2022-12-01T00:59:27.836Z,36.40
2022-12-01T01:00:27.833Z,35.00
2022-12-01T01:01:27.915Z,35.80
2022-12-01T01:02:27.889Z,35.80
2022-12-01T01:03:27.809Z,33.70
2022-12-01T01:04:27.798Z,34.60
2022-12-01T01:05:27.788Z,36.20
2022-12-01T01:06:27.804Z,34.90
2022-12-01T01:07:27.836Z,35.10
2022-12-01T01:08:27.766Z,35.40
2022-12-01T01:09:27.754Z,34.80
2022-12-01T01:10:27.747Z,33.50
2022-12-01T01:11:27.770Z,33.00
2022-12-01T01:12:27.734Z,35.00
2022-12-01T01:13:27.725Z,32.20
2022-12-01T01:14:27.715Z,33.10
2022-12-01T01:15:27.711Z,34.00
2022-12-01T01:16:27.754Z,35.00
2022-12-01T01:17:27.693Z,36.00
2022-12-01T01:18:27.683Z,36.30
2022-12-01T01:19:27.680Z,34.20
2022-12-01T01:20:27.670Z,33.80
2022-12-01T01:21:27.694Z,33.80
2022-12-01T01:22:27.650Z,34.60
2022-12-01T01:23:27.644Z,35.10
2022-12-01T01:24:27.651Z,34.20
2022-12-01T01:25:27.635Z,32.90
2022-12-01T01:26:27.644Z,33.50
2022-12-01T01:27:27.608Z,35.30
2022-12-01T01:28:28.602Z,33.10
2022-12-01T01:29:27.595Z,33.70
2022-12-01T01:30:27.616Z,34.10
2022-12-01T01:31:27.601Z,34.20
2022-12-01T01:32:27.567Z,33.70
2022-12-01T01:33:27.563Z,32.30
2022-12-01T01:34:27.554Z,33.50
2022-12-01T01:35:27.545Z,33.10
2022-12-01T01:36:27.560Z,34.00
2022-12-01T01:37:27.529Z,34.00
2022-12-01T01:38:27.523Z,32.90
2022-12-01T01:39:27.513Z,33.40
2022-12-01T01:40:27.507Z,33.10
2022-12-01T01:41:27.519Z,32.40
2022-12-01T01:42:27.491Z,35.30
2022-12-01T01:43:27.484Z,34.40
2022-12-01T01:44:27.473Z,33.20
2022-12-01T01:45:27.468Z,33.30
2022-12-01T01:46:27.564Z,33.90
2022-12-01T01:47:27.460Z,33.00
2022-12-01T01:48:27.442Z,34.10
2022-12-01T01:49:27.439Z,32.20
2022-12-01T01:50:27.427Z,34.00
2022-12-01T01:51:27.447Z,33.50
2022-12-01T01:52:27.415Z,32.90
2022-12-01T01:53:27.403Z,33.70
2022-12-01T01:54:27.395Z,33.40
2022-12-01T01:55:27.387Z,33.90
2022-12-01T01:56:27.405Z,32.80
2022-12-01T01:57:27.369Z,32.70
2022-12-01T01:58:27.358Z,30.80
2022-12-01T01:59:27.352Z,33.00
2022-12-01T02:00:27.344Z,32.50
2022-12-01T02:01:27.405Z,30.80
2022-12-01T02:02:27.404Z,30.30
2022-12-01T02:03:27.315Z,30.70
2022-12-01T02:04:27.319Z,31.20
2022-12-01T02:05:27.302Z,32.90
2022-12-01T02:06:27.296Z,34.30
2022-12-01T02:07:27.336Z,34.00
2022-12-01T02:08:27.282Z,32.80
2022-12-01T02:09:27.279Z,33.20
2022-12-01T02:10:27.268Z,30.80
2022-12-01T02:11:27.261Z,33.10
2022-12-01T02:12:27.276Z,32.60
2022-12-01T02:13:27.244Z,33.30
2022-12-01T02:14:27.236Z,33.40
2022-12-01T02:15:27.227Z,31.50
2022-12-01T02:16:27.237Z,33.10
2022-12-01T02:17:27.235Z,33.10
2022-12-01T02:18:27.203Z,33.80
2022-12-01T02:19:27.193Z,30.90
2022-12-01T02:20:27.187Z,32.20
2022-12-01T02:21:27.176Z,34.60
2022-12-01T02:22:27.199Z,32.30
2022-12-01T02:23:27.167Z,34.30
2022-12-01T02:24:27.155Z,34.30
2022-12-01T02:25:27.147Z,31.50
2022-12-01T02:26:27.146Z,32.50
2022-12-01T02:27:27.156Z,34.60
2022-12-01T02:28:27.126Z,32.80
2022-12-01T02:29:27.115Z,34.10
2022-12-01T02:30:27.159Z,33.10
2022-12-01T02:31:27.103Z,33.30
2022-12-01T02:32:27.118Z,32.80
2022-12-01T02:33:27.085Z,33.10
2022-12-01T02:34:27.075Z,32.60
2022-12-01T02:35:27.067Z,33.40
2022-12-01T02:36:27.056Z,33.40
2022-12-01T02:37:27.078Z,33.60
2022-12-01T02:38:27.044Z,34.30
2022-12-01T02:39:27.037Z,34.10
2022-12-01T02:40:27.025Z,33.50
2022-12-01T02:41:27.019Z,34.40
2022-12-01T02:42:27.033Z,35.10
2022-12-01T02:43:27.000Z,32.50
2022-12-01T02:44:26.994Z,33.90
2022-12-01T02:45:26.983Z,35.20
2022-12-01T02:46:27.061Z,34.10
2022-12-01T02:47:26.995Z,33.00
2022-12-01T02:48:26.965Z,34.00
2022-12-01T02:49:26.958Z,32.70
2022-12-01T02:50:26.945Z,32.90
2022-12-01T02:51:26.935Z,33.10
2022-12-01T02:52:26.962Z,33.70
2022-12-01T02:53:26.926Z,33.20
2022-12-01T02:54:26.918Z,34.40
2022-12-01T02:55:26.911Z,33.80
2022-12-01T02:56:26.906Z,33.70
2022-12-01T02:57:26.923Z,34.00
2022-12-01T02:58:26.891Z,32.10
2022-12-01T02:59:26.880Z,33.80
2022-12-01T03:00:26.870Z,33.20
2022-12-01T03:01:26.908Z,32.40
2022-12-01T03:02:26.941Z,31.70
2022-12-01T03:03:26.845Z,32.90
2022-12-01T03:04:26.839Z,33.10
2022-12-01T03:05:26.836Z,32.90
2022-12-01T03:06:26.824Z,33.80
2022-12-01T03:07:26.864Z,32.20
2022-12-01T03:08:26.808Z,33.10
2022-12-01T03:09:26.796Z,33.30
2022-12-01T03:10:26.783Z,32.40
2022-12-01T03:11:27.780Z,32.20
2022-12-01T03:12:26.798Z,32.80
2022-12-01T03:13:26.767Z,32.00
2022-12-01T03:14:26.761Z,32.60
2022-12-01T03:15:26.749Z,31.80
2022-12-01T03:16:26.841Z,33.40
2022-12-01T03:17:26.737Z,31.80
2022-12-01T03:18:26.747Z,33.50
2022-12-01T03:19:26.717Z,32.80
2022-12-01T03:20:26.706Z,31.90
2022-12-01T03:21:26.694Z,32.90
2022-12-01T03:22:26.691Z,32.80
2022-12-01T03:23:26.709Z,33.30
2022-12-01T03:24:26.677Z,31.90
2022-12-01T03:25:26.669Z,33.40
2022-12-01T03:26:26.663Z,31.60
2022-12-01T03:27:26.655Z,33.10
2022-12-01T03:28:26.671Z,31.10
2022-12-01T03:29:26.635Z,33.20
2022-12-01T03:30:26.627Z,32.30
2022-12-01T03:31:26.719Z,33.30
2022-12-01T03:32:26.609Z,32.90
2022-12-01T03:33:26.629Z,32.20
2022-12-01T03:34:26.595Z,33.90
2022-12-01T03:35:26.596Z,33.30
2022-12-01T03:36:26.583Z,34.20
2022-12-01T03:37:26.572Z,33.90
2022-12-01T03:38:26.623Z,33.80
2022-12-01T03:39:26.560Z,33.30
2022-12-01T03:40:26.551Z,34.80
2022-12-01T03:41:26.543Z,35.30
2022-12-01T03:42:26.531Z,33.70
2022-12-01T03:43:26.553Z,33.00
2022-12-01T03:44:26.519Z,33.80
2022-12-01T03:45:26.513Z,32.10
2022-12-01T03:46:26.538Z,32.70
2022-12-01T03:47:26.500Z,31.50
2022-12-01T03:48:26.515Z,34.00
2022-12-01T03:49:26.484Z,31.00
2022-12-01T03:50:26.474Z,32.10
2022-12-01T03:51:26.463Z,30.70
2022-12-01T03:52:26.443Z,31.30
2022-12-01T03:53:27.476Z,31.60
2022-12-01T03:54:26.441Z,31.40
2022-12-01T03:55:26.431Z,30.50
2022-12-01T03:56:26.426Z,30.70
2022-12-01T03:57:26.409Z,31.60
2022-12-01T03:58:26.436Z,30.20
2022-12-01T03:59:26.400Z,30.50
2022-12-01T04:00:26.401Z,31.70
2022-12-01T04:01:26.468Z,31.40
2022-12-01T04:02:26.404Z,32.30
2022-12-01T04:03:26.391Z,31.50
2022-12-01T04:04:26.360Z,32.40
2022-12-01T04:05:26.350Z,30.30
2022-12-01T04:06:26.345Z,30.70
2022-12-01T04:07:26.377Z,31.30
2022-12-01T04:08:26.353Z,32.00
2022-12-01T04:09:26.314Z,31.10
2022-12-01T04:10:26.307Z,31.50
2022-12-01T04:11:32.163Z,30.30
2022-12-01T04:12:28.299Z,31.00
2022-12-01T04:13:26.314Z,31.90
2022-12-01T04:14:26.286Z,30.60
2022-12-01T04:15:26.276Z,32.40
2022-12-01T04:16:26.308Z,33.30
2022-12-01T04:17:26.263Z,31.90
2022-12-01T04:18:26.286Z,31.00
2022-12-01T04:19:26.244Z,31.90
2022-12-01T04:20:26.239Z,31.00
2022-12-01T04:21:26.225Z,32.40
2022-12-01T04:22:26.221Z,31.50
2022-12-01T04:23:26.247Z,30.50
2022-12-01T04:24:26.204Z,31.20
2022-12-01T04:25:26.191Z,31.80
2022-12-01T04:26:26.187Z,31.70
2022-12-01T04:27:26.178Z,32.80
2022-12-01T04:28:26.168Z,33.20
2022-12-01T04:29:26.188Z,33.50
2022-12-01T04:30:26.154Z,32.10
2022-12-01T04:31:26.178Z,31.40
2022-12-01T04:32:26.140Z,31.00
2022-12-01T04:33:26.131Z,31.60
2022-12-01T04:34:26.150Z,31.60
2022-12-01T04:35:26.112Z,32.70
2022-12-01T04:36:26.108Z,31.50
2022-12-01T04:37:26.097Z,32.50
2022-12-01T04:38:30.302Z,32.60
2022-12-01T04:39:27.102Z,32.90
2022-12-01T04:40:26.074Z,31.80
2022-12-01T04:41:26.078Z,30.90
2022-12-01T04:42:26.056Z,30.30
2022-12-01T04:43:26.051Z,29.60
2022-12-01T04:44:28.949Z,31.60
2022-12-01T04:45:28.032Z,30.30
2022-12-01T04:46:26.090Z,29.40
2022-12-01T04:47:26.020Z,32.00
2022-12-01T04:48:26.008Z,30.40
2022-12-01T04:49:26.027Z,32.90
2022-12-01T04:50:25.992Z,32.90
2022-12-01T04:51:25.987Z,31.00
2022-12-01T04:52:27.475Z,29.40
2022-12-01T04:53:25.967Z,28.60
2022-12-01T04:54:25.991Z,33.60
2022-12-01T04:55:25.960Z,28.10
2022-12-01T04:56:25.948Z,30.50
2022-12-01T04:57:25.942Z,31.90
2022-12-01T04:58:25.928Z,32.00
2022-12-01T04:59:25.947Z,29.50
2022-12-01T05:00:25.948Z,28.70
2022-12-01T05:01:25.942Z,30.20
2022-12-01T05:02:25.956Z,30.80
2022-12-01T05:03:25.899Z,28.50
2022-12-01T05:04:25.904Z,30.60
2022-12-01T05:05:25.866Z,30.50
2022-12-01T05:06:26.870Z,29.10
2022-12-01T05:07:25.889Z,30.20
2022-12-01T05:08:25.850Z,30.90
2022-12-01T05:09:25.865Z,28.90
2022-12-01T05:10:25.832Z,27.40
2022-12-01T05:11:25.827Z,27.40
2022-12-01T05:12:25.818Z,24.90
2022-12-01T05:13:25.806Z,27.00
2022-12-01T05:14:25.825Z,26.00
2022-12-01T05:15:25.794Z,27.30
2022-12-01T05:16:25.858Z,30.10
2022-12-01T05:17:25.777Z,26.20
2022-12-01T05:18:25.844Z,26.80
2022-12-01T05:19:25.791Z,26.00
2022-12-01T05:20:25.753Z,25.00
2022-12-01T05:21:25.751Z,25.90
2022-12-01T05:22:42.864Z,25.40
2022-12-01T05:23:27.730Z,26.90
2022-12-01T05:24:25.754Z,26.00
2022-12-01T05:25:25.717Z,28.20
2022-12-01T05:26:25.709Z,27.40
2022-12-01T05:27:25.810Z,26.10
2022-12-01T05:28:25.697Z,27.10
2022-12-01T05:29:25.706Z,26.00
2022-12-01T05:30:28.786Z,24.10
2022-12-01T05:31:26.695Z,25.30
2022-12-01T05:32:25.663Z,25.10
2022-12-01T05:33:25.654Z,26.50
2022-12-01T05:34:25.668Z,26.70
2022-12-01T05:35:25.633Z,27.40
2022-12-01T05:36:25.637Z,26.80
2022-12-01T05:37:25.617Z,28.40
2022-12-01T05:38:25.617Z,29.10
2022-12-01T05:39:25.635Z,27.00
2022-12-01T05:40:25.592Z,26.40
2022-12-01T05:41:25.585Z,29.20
2022-12-01T05:42:25.581Z,30.10
2022-12-01T05:43:29.314Z,30.10
2022-12-01T05:44:26.595Z,28.20
2022-12-01T05:45:25.686Z,26.50
2022-12-01T05:46:25.614Z,28.80
2022-12-01T05:47:25.539Z,30.40
2022-12-01T05:48:25.544Z,30.00
2022-12-01T05:49:25.561Z,28.90
2022-12-01T05:50:25.519Z,28.30
2022-12-01T05:51:25.512Z,29.40
2022-12-01T05:52:25.502Z,30.10
2022-12-01T05:53:25.494Z,27.80
2022-12-01T05:54:25.483Z,29.60
2022-12-01T05:55:25.501Z,31.60
2022-12-01T05:56:25.470Z,30.50
2022-12-01T05:57:25.455Z,34.10
2022-12-01T05:58:25.451Z,32.70
2022-12-01T05:59:25.443Z,31.20
2022-12-01T06:00:25.469Z,31.60
2022-12-01T06:01:25.431Z,31.60
2022-12-01T06:02:25.470Z,31.60
2022-12-01T06:03:25.408Z,31.30
2022-12-01T06:04:25.432Z,35.70
2022-12-01T06:05:25.420Z,33.00
2022-12-01T06:06:25.385Z,31.30
2022-12-01T06:07:25.427Z,37.50
2022-12-01T06:08:25.370Z,32.80
2022-12-01T06:09:25.364Z,32.20
2022-12-01T06:10:25.380Z,32.80
2022-12-01T06:11:25.350Z,30.50
2022-12-01T06:12:25.336Z,30.20
2022-12-01T06:13:25.328Z,33.40
2022-12-01T06:14:25.321Z,30.50
2022-12-01T06:15:25.340Z,28.20
2022-12-01T06:16:25.340Z,32.40
2022-12-01T06:17:25.315Z,31.30
2022-12-01T06:18:25.288Z,30.50
2022-12-01T06:19:25.279Z,30.00
2022-12-01T06:20:25.295Z,30.30
2022-12-01T06:21:25.267Z,31.60
2022-12-01T06:22:25.258Z,30.90
2022-12-01T06:23:30.009Z,31.60
2022-12-01T06:24:27.239Z,33.80
2022-12-01T06:25:25.259Z,34.60
2022-12-01T06:26:25.227Z,35.00
2022-12-01T06:27:25.219Z,33.20
2022-12-01T06:28:25.220Z,35.00
2022-12-01T06:29:25.201Z,33.90
2022-12-01T06:30:25.221Z,34.20
2022-12-01T06:31:25.238Z,33.30
2022-12-01T06:32:25.176Z,33.00
2022-12-01T06:33:25.168Z,32.90
2022-12-01T06:34:25.163Z,32.80
2022-12-01T06:35:25.175Z,32.30
2022-12-01T06:36:25.147Z,32.40
2022-12-01T06:37:25.140Z,33.40
2022-12-01T06:38:25.139Z,32.10
2022-12-01T06:39:25.127Z,32.30
2022-12-01T06:40:25.153Z,33.30
2022-12-01T06:41:25.130Z,33.20
2022-12-01T06:42:25.104Z,32.80
2022-12-01T06:43:25.091Z,32.30
2022-12-01T06:44:25.082Z,34.00
2022-12-01T06:45:25.118Z,32.80
2022-12-01T06:46:25.160Z,32.80
2022-12-01T06:47:25.058Z,33.90
2022-12-01T06:48:25.058Z,32.70
2022-12-01T06:49:25.044Z,32.90
2022-12-01T06:50:25.041Z,32.10
2022-12-01T06:51:25.054Z,33.10
2022-12-01T06:52:25.022Z,34.10
2022-12-01T06:53:25.011Z,33.00
2022-12-01T06:54:25.002Z,32.20
2022-12-01T06:55:25.024Z,32.60
2022-12-01T06:56:24.988Z,34.20
2022-12-01T06:57:24.978Z,33.00
2022-12-01T06:58:24.973Z,32.20
2022-12-01T06:59:24.965Z,32.30
2022-12-01T07:00:24.956Z,33.70
2022-12-01T07:01:25.049Z,33.20
2022-12-01T07:02:25.013Z,33.70
2022-12-01T07:03:24.943Z,32.20
2022-12-01T07:04:24.923Z,32.30
2022-12-01T07:05:24.918Z,31.60
2022-12-01T07:06:24.937Z,29.70
2022-12-01T07:07:24.951Z,30.50
2022-12-01T07:08:24.894Z,29.80
2022-12-01T07:09:24.886Z,29.30
2022-12-01T07:10:24.883Z,30.20
2022-12-01T07:11:24.885Z,29.60
2022-12-01T07:12:25.864Z,31.60
2022-12-01T07:13:27.663Z,30.60
2022-12-01T07:14:25.848Z,30.70
2022-12-01T07:15:24.848Z,29.10
2022-12-01T07:16:24.971Z,30.20
2022-12-01T07:17:24.835Z,29.40
2022-12-01T07:18:24.824Z,29.10
2022-12-01T07:19:24.825Z,27.50
2022-12-01T07:20:24.809Z,28.50
2022-12-01T07:21:24.831Z,28.00
2022-12-01T07:22:29.456Z,27.50
2022-12-01T07:23:26.782Z,26.80
2022-12-01T07:24:24.774Z,26.30
2022-12-01T07:25:24.783Z,24.80
2022-12-01T07:26:24.785Z,25.40
2022-12-01T07:27:24.752Z,25.20
2022-12-01T07:28:24.741Z,25.90
2022-12-01T07:29:24.740Z,27.10
2022-12-01T07:30:28.460Z,26.60
2022-12-01T07:31:26.780Z,26.80
2022-12-01T07:32:24.714Z,25.60
2022-12-01T07:33:24.706Z,26.10
2022-12-01T07:34:24.698Z,26.60
2022-12-01T07:35:24.686Z,25.70
2022-12-01T07:36:24.709Z,25.90
2022-12-01T07:37:24.677Z,25.40
2022-12-01T07:38:24.661Z,24.40
2022-12-01T07:39:24.651Z,25.30
2022-12-01T07:40:24.647Z,26.20
2022-12-01T07:41:24.664Z,25.80
2022-12-01T07:42:24.633Z,25.20
2022-12-01T07:43:24.626Z,23.20
2022-12-01T07:44:24.617Z,22.00
2022-12-01T07:45:24.610Z,20.70
2022-12-01T07:46:24.697Z,20.40
2022-12-01T07:47:24.591Z,21.40
2022-12-01T07:48:24.583Z,20.70
2022-12-01T07:49:24.573Z,21.80
2022-12-01T07:50:24.567Z,23.10
2022-12-01T07:51:24.560Z,23.30
2022-12-01T07:52:24.574Z,22.10
2022-12-01T07:53:24.540Z,24.30
2022-12-01T07:54:24.540Z,20.80
2022-12-01T07:55:24.522Z,18.80
2022-12-01T07:56:24.517Z,17.50
2022-12-01T07:57:24.537Z,18.90
2022-12-01T07:58:24.508Z,18.00
2022-12-01T07:59:24.499Z,18.40
2022-12-01T08:00:24.489Z,19.60
2022-12-01T08:01:24.527Z,20.50
2022-12-01T08:02:24.518Z,20.60
2022-12-01T08:03:24.466Z,20.70
2022-12-01T08:04:24.454Z,20.70
2022-12-01T08:05:24.448Z,19.90
2022-12-01T08:06:24.438Z,19.80
2022-12-01T08:07:29.581Z,19.00
2022-12-01T08:08:26.422Z,19.30
2022-12-01T08:09:24.418Z,20.70
2022-12-01T08:10:24.406Z,19.10
2022-12-01T08:11:24.402Z,19.40
2022-12-01T08:12:24.422Z,19.90
2022-12-01T08:13:24.384Z,18.60
2022-12-01T08:14:24.377Z,19.50
2022-12-01T08:15:24.416Z,20.10
2022-12-01T08:16:24.356Z,19.30
2022-12-01T08:17:24.380Z,21.20
2022-12-01T08:18:24.346Z,19.50
2022-12-01T08:19:24.340Z,20.20
2022-12-01T08:20:24.368Z,19.40
2022-12-01T08:21:24.326Z,20.90
2022-12-01T08:22:24.339Z,19.00
2022-12-01T08:23:24.304Z,18.80
2022-12-01T08:24:24.295Z,19.50
2022-12-01T08:25:24.290Z,19.90
2022-12-01T08:26:24.280Z,20.40
2022-12-01T08:27:24.298Z,20.00
2022-12-01T08:28:24.266Z,19.70
2022-12-01T08:29:24.261Z,20.60
2022-12-01T08:30:24.284Z,19.70
2022-12-01T08:31:24.302Z,20.10
2022-12-01T08:32:24.263Z,19.50
2022-12-01T08:33:24.231Z,19.30
2022-12-01T08:34:24.216Z,18.50
2022-12-01T08:35:24.211Z,19.20
2022-12-01T08:36:24.191Z,18.50
2022-12-01T08:37:25.223Z,19.30
2022-12-01T08:38:24.181Z,19.50
2022-12-01T08:39:25.189Z,20.10
2022-12-01T08:40:24.240Z,19.70
2022-12-01T08:41:24.165Z,19.30
2022-12-01T08:42:24.184Z,18.50
2022-12-01T08:44:26.151Z,20.20
2022-12-01T08:45:24.134Z,18.80
2022-12-01T08:46:24.321Z,19.90
2022-12-01T08:47:24.150Z,21.00
2022-12-01T08:48:24.108Z,20.70
2022-12-01T08:49:24.112Z,20.00
2022-12-01T08:50:24.175Z,20.30
2022-12-01T08:51:24.088Z,20.70
2022-12-01T08:52:24.101Z,20.30
2022-12-01T08:53:24.070Z,21.20
2022-12-01T08:54:24.338Z,20.60
2022-12-01T08:55:24.054Z,22.30
2022-12-01T08:56:24.047Z,22.60
2022-12-01T08:57:24.069Z,20.90
2022-12-01T08:58:24.029Z,21.00
2022-12-01T08:59:24.022Z,22.10
2022-12-01T09:00:24.017Z,22.20
2022-12-01T09:01:24.082Z,24.40
2022-12-01T09:02:24.132Z,22.80
2022-12-01T09:03:24.030Z,23.50
2022-12-01T09:04:23.982Z,22.80
2022-12-01T09:05:23.974Z,21.40
2022-12-01T09:06:23.966Z,22.30
2022-12-01T09:07:26.654Z,22.40
2022-12-01T09:08:24.957Z,22.60
2022-12-01T09:09:23.945Z,21.90
2022-12-01T09:10:23.943Z,22.00
2022-12-01T09:11:23.930Z,22.40
2022-12-01T09:12:23.954Z,22.80
2022-12-01T09:13:23.912Z,21.20
2022-12-01T09:14:23.905Z,22.20
2022-12-01T09:15:23.898Z,22.00
2022-12-01T09:16:23.957Z,22.20
2022-12-01T09:17:23.901Z,23.00
2022-12-01T09:18:23.873Z,21.80
2022-12-01T09:19:25.184Z,22.00
2022-12-01T09:20:24.854Z,23.50
2022-12-01T09:21:23.849Z,22.20
2022-12-01T09:22:23.869Z,23.70
2022-12-01T09:23:23.829Z,23.40
2022-12-01T09:24:23.824Z,23.40
2022-12-01T09:25:23.813Z,25.10
2022-12-01T09:26:23.811Z,22.40
2022-12-01T09:27:23.819Z,22.20
2022-12-01T09:28:23.799Z,23.20
2022-12-01T09:29:23.782Z,22.60
2022-12-01T09:30:23.789Z,22.30
2022-12-01T09:31:23.866Z,22.90
2022-12-01T09:32:23.781Z,22.80
2022-12-01T09:33:23.748Z,23.60
2022-12-01T09:34:23.742Z,22.80
2022-12-01T09:35:23.846Z,23.70
2022-12-01T09:36:23.735Z,24.20
2022-12-01T09:37:23.747Z,22.90
2022-12-01T09:38:23.709Z,23.70
2022-12-01T09:39:23.702Z,24.20
2022-12-01T09:40:23.711Z,26.50
2022-12-01T09:41:23.689Z,25.20
2022-12-01T09:42:23.699Z,26.90
2022-12-01T09:43:23.672Z,24.40
2022-12-01T09:44:23.672Z,26.10
2022-12-01T09:45:23.652Z,26.70
2022-12-01T09:46:23.675Z,26.50
2022-12-01T09:47:23.667Z,27.00
2022-12-01T09:48:23.640Z,27.00
2022-12-01T09:49:23.629Z,27.10
2022-12-01T09:50:23.616Z,27.50
2022-12-01T09:51:23.604Z,26.50
2022-12-01T09:52:23.599Z,25.10
2022-12-01T09:53:23.619Z,25.30
2022-12-01T09:54:23.585Z,27.60
2022-12-01T09:55:23.570Z,26.00
2022-12-01T09:56:23.568Z,26.20
2022-12-01T09:57:23.560Z,25.50
2022-12-01T09:58:23.578Z,26.10
2022-12-01T09:59:23.551Z,28.50
2022-12-01T10:00:23.539Z,24.90
2022-12-01T10:01:27.223Z,24.70
2022-12-01T10:02:24.567Z,26.30
2022-12-01T10:03:23.533Z,26.40
2022-12-01T10:04:23.508Z,25.60
2022-12-01T10:05:23.575Z,26.10
2022-12-01T10:06:28.134Z,27.60
2022-12-01T10:07:25.520Z,27.40
2022-12-01T10:08:26.927Z,27.70
2022-12-01T10:09:24.470Z,29.10
2022-12-01T10:10:23.495Z,28.10
2022-12-01T10:11:23.455Z,28.70
2022-12-01T10:12:23.440Z,28.90
2022-12-01T10:13:23.458Z,29.70
2022-12-01T10:14:23.426Z,28.50
2022-12-01T10:15:23.414Z,28.70
2022-12-01T10:16:23.431Z,28.40
2022-12-01T10:17:23.401Z,27.50
2022-12-01T10:18:23.407Z,27.40
2022-12-01T10:19:23.377Z,27.50
2022-12-01T10:20:23.415Z,28.90
2022-12-01T10:21:23.370Z,27.90
2022-12-01T10:22:23.359Z,27.30
2022-12-01T10:23:23.379Z,28.40
2022-12-01T10:24:23.348Z,28.80
2022-12-01T10:25:23.331Z,25.90
2022-12-01T10:26:23.324Z,26.00
2022-12-01T10:27:23.308Z,27.40
2022-12-01T10:28:24.338Z,26.10
2022-12-01T10:29:23.303Z,26.20
2022-12-01T10:30:23.352Z,26.90
2022-12-01T10:31:23.366Z,27.40
2022-12-01T10:32:23.279Z,26.60
2022-12-01T10:33:23.315Z,26.10
2022-12-01T10:34:23.271Z,25.80
2022-12-01T10:35:23.263Z,26.80
2022-12-01T10:36:23.254Z,26.70
2022-12-01T10:37:23.258Z,27.80
2022-12-01T10:38:23.353Z,28.80
2022-12-01T10:39:23.228Z,27.40
2022-12-01T10:40:23.296Z,27.70
2022-12-01T10:41:23.221Z,26.60
2022-12-01T10:42:23.205Z,27.80
2022-12-01T10:43:23.223Z,28.60
2022-12-01T10:44:23.183Z,28.10
2022-12-01T10:45:23.181Z,25.50
2022-12-01T10:46:23.236Z,27.80
2022-12-01T10:47:23.166Z,25.20
2022-12-01T10:48:23.186Z,25.00
2022-12-01T10:49:23.162Z,25.50
2022-12-01T10:50:23.148Z,27.50
2022-12-01T10:51:23.134Z,26.40
2022-12-01T10:52:23.127Z,25.30
2022-12-01T10:53:23.175Z,26.50
2022-12-01T10:54:23.117Z,25.00
2022-12-01T10:55:23.126Z,25.80
2022-12-01T10:56:23.094Z,25.50
2022-12-01T10:57:23.089Z,24.10
2022-12-01T10:58:23.120Z,24.40
2022-12-01T10:59:23.070Z,25.20
2022-12-01T11:00:57.418Z,24.10
2022-12-01T11:01:25.148Z,24.40
2022-12-01T11:02:23.286Z,24.70
2022-12-01T11:03:23.232Z,26.80
2022-12-01T11:04:23.056Z,26.70
2022-12-01T11:05:23.020Z,26.30
2022-12-01T11:06:23.017Z,23.40
2022-12-01T11:07:23.056Z,25.40
2022-12-01T11:08:23.015Z,25.60
2022-12-01T11:09:26.425Z,24.80
2022-12-01T11:10:23.987Z,25.30
2022-12-01T11:11:22.975Z,26.70
2022-12-01T11:12:24.028Z,25.30
2022-12-01T11:13:22.963Z,26.10
2022-12-01T11:14:22.981Z,25.60
2022-12-01T11:15:22.946Z,25.60
2022-12-01T11:16:22.984Z,27.70
2022-12-01T11:17:22.933Z,28.00
2022-12-01T11:18:22.917Z,29.10
2022-12-01T11:19:27.227Z,26.80
2022-12-01T11:20:23.940Z,26.70
2022-12-01T11:21:22.907Z,27.60
2022-12-01T11:22:22.886Z,28.30
2022-12-01T11:23:22.881Z,27.70
2022-12-01T11:24:22.898Z,26.50
2022-12-01T11:25:22.866Z,27.50
2022-12-01T11:26:22.858Z,28.60
2022-12-01T11:27:22.850Z,28.20
2022-12-01T11:28:22.844Z,27.80
2022-12-01T11:29:22.852Z,27.00
2022-12-01T11:30:22.820Z,29.00
2022-12-01T11:31:25.329Z,29.70
2022-12-01T11:32:22.807Z,28.30
2022-12-01T11:33:22.799Z,28.60
2022-12-01T11:34:22.807Z,29.30
2022-12-01T11:35:22.781Z,27.20
2022-12-01T11:36:22.778Z,29.90
2022-12-01T11:37:22.768Z,29.30
2022-12-01T11:38:30.423Z,29.90
2022-12-01T11:39:24.777Z,28.40
2022-12-01T11:40:22.740Z,27.90
2022-12-01T11:41:22.732Z,27.40
2022-12-01T11:42:22.729Z,27.80
2022-12-01T11:43:22.719Z,29.40
2022-12-01T11:44:43.560Z,30.30
2022-12-01T11:45:24.875Z,29.00
2022-12-01T11:46:22.763Z,28.00
2022-12-01T11:47:24.330Z,28.10
2022-12-01T11:48:23.681Z,28.50
2022-12-01T11:49:22.694Z,28.20
2022-12-01T11:50:22.666Z,27.70
2022-12-01T11:51:22.654Z,26.50
2022-12-01T11:52:22.646Z,26.60
2022-12-01T11:53:22.642Z,29.10
2022-12-01T11:54:22.664Z,28.20
2022-12-01T11:55:22.627Z,28.40
2022-12-01T11:56:22.619Z,28.10
2022-12-01T11:57:37.917Z,27.50
2022-12-01T11:58:24.652Z,27.10
2022-12-01T11:59:22.628Z,27.30
2022-12-01T12:00:22.589Z,28.30
2022-12-01T12:01:22.583Z,28.00
2022-12-01T12:02:22.628Z,27.00
2022-12-01T12:03:22.616Z,28.20
2022-12-01T12:04:22.585Z,27.10
2022-12-01T12:05:22.561Z,28.40
2022-12-01T12:07:24.622Z,27.70
2022-12-01T12:08:22.525Z,29.20
2022-12-01T12:09:22.519Z,28.70
2022-12-01T12:10:22.565Z,26.50
2022-12-01T12:11:22.507Z,28.10
2022-12-01T12:12:22.492Z,27.50
2022-12-01T12:13:22.485Z,27.50
2022-12-01T12:14:22.475Z,28.70
2022-12-01T12:15:22.499Z,29.20
2022-12-01T12:16:22.463Z,27.30
2022-12-01T12:17:22.485Z,28.20
2022-12-01T12:18:22.446Z,27.60
2022-12-01T12:19:29.000Z,27.90
2022-12-01T12:20:24.452Z,27.90
2022-12-01T12:21:22.420Z,27.60
2022-12-01T12:22:22.414Z,25.90
2022-12-01T12:23:22.408Z,26.80
2022-12-01T12:24:22.401Z,27.00
2022-12-01T12:25:22.418Z,26.20
2022-12-01T12:26:22.410Z,27.20
2022-12-01T12:27:22.371Z,28.20
2022-12-01T12:28:22.366Z,27.50
2022-12-01T12:29:22.365Z,29.50
2022-12-01T12:30:22.378Z,26.20
2022-12-01T12:31:22.369Z,26.70
2022-12-01T12:32:22.338Z,27.30
2022-12-01T12:33:22.327Z,27.30
2022-12-01T12:34:22.323Z,26.50
2022-12-01T12:35:22.337Z,27.00
2022-12-01T12:36:22.316Z,27.10
2022-12-01T12:37:24.819Z,27.10
2022-12-01T12:38:22.300Z,28.00
2022-12-01T12:39:22.285Z,30.10
2022-12-01T12:40:22.356Z,29.30
2022-12-01T12:41:22.273Z,28.00
2022-12-01T12:42:22.258Z,27.10
2022-12-01T12:43:22.247Z,26.40
2022-12-01T12:44:22.245Z,26.80
2022-12-01T12:45:22.263Z,26.80
2022-12-01T12:46:22.379Z,25.10
2022-12-01T12:47:22.248Z,25.90
2022-12-01T12:48:22.226Z,25.10
2022-12-01T12:49:22.216Z,24.20
2022-12-01T12:50:22.218Z,23.20
2022-12-01T12:51:22.185Z,25.70
2022-12-01T12:52:22.178Z,24.90
2022-12-01T12:53:22.175Z,23.60
2022-12-01T12:54:22.251Z,25.10